createdAt,value
2019-04-21T00:00:45.568Z,5.30
2019-04-21T00:03:18.103Z,5.08
2019-04-21T00:06:04.604Z,4.90
2019-04-21T00:08:39.229Z,5.15
2019-04-21T00:11:09.458Z,4.67
2019-04-21T00:13:32.642Z,4.92
2019-04-21T00:15:54.036Z,5.28
2019-04-21T00:18:21.205Z,5.12
2019-04-21T00:20:55.204Z,5.50
2019-04-21T00:23:38.858Z,4.90
2019-04-21T00:26:06.935Z,5.58
2019-04-21T00:28:53.393Z,5.72
2019-04-21T00:31:12.799Z,5.72
2019-04-21T00:33:31.584Z,6.03
2019-04-21T00:36:05.087Z,6.12
2019-04-21T00:39:03.023Z,5.75
2019-04-21T00:41:18.800Z,5.65
2019-04-21T00:43:44.782Z,6.17
2019-04-21T00:46:12.135Z,6.15
2019-04-21T00:48:53.977Z,6.12
2019-04-21T00:51:33.358Z,6.25
2019-04-21T00:54:05.766Z,5.95
2019-04-21T00:56:27.705Z,5.63
2019-04-21T00:59:05.746Z,5.95
2019-04-21T01:01:31.408Z,5.65
2019-04-21T01:04:02.798Z,6.25
2019-04-21T01:06:35.149Z,5.70
2019-04-21T01:09:02.687Z,5.83
2019-04-21T01:11:33.251Z,6.08
2019-04-21T01:14:16.645Z,5.50
2019-04-21T01:16:39.792Z,5.08
2019-04-21T01:19:05.024Z,5.90
2019-04-21T01:21:18.765Z,5.17
2019-04-21T01:23:48.649Z,5.62
2019-04-21T01:26:32.518Z,5.72
2019-04-21T01:29:06.737Z,6.03
2019-04-21T01:31:37.713Z,5.97
2019-04-21T01:34:14.921Z,5.08
2019-04-21T01:36:41.760Z,5.60
2019-04-21T01:39:35.188Z,5.83
2019-04-21T01:41:52.596Z,5.95
2019-04-21T01:44:26.664Z,5.83
2019-04-21T01:46:45.807Z,5.92
2019-04-21T01:49:11.521Z,5.75
2019-04-21T01:52:19.963Z,5.42
2019-04-21T01:54:55.854Z,5.67
2019-04-21T01:57:37.520Z,6.12
2019-04-21T02:00:04.441Z,5.90
2019-04-21T02:02:49.255Z,5.55
2019-04-21T02:05:29.999Z,6.05
2019-04-21T02:07:50.825Z,5.22
2019-04-21T02:10:27.005Z,5.85
2019-04-21T02:12:51.260Z,5.00
2019-04-21T02:15:23.711Z,5.20
2019-04-21T02:17:53.682Z,5.47
2019-04-21T02:20:18.295Z,5.72
2019-04-21T02:23:12.923Z,5.13
2019-04-21T02:25:32.160Z,5.42
2019-04-21T02:28:03.731Z,5.40
2019-04-21T02:30:52.096Z,5.70
2019-04-21T02:33:18.497Z,5.92
2019-04-21T02:35:53.534Z,5.55
2019-04-21T02:38:20.997Z,5.60
2019-04-21T02:43:18.639Z,5.20
2019-04-21T02:45:47.588Z,5.42
2019-04-21T02:48:22.683Z,6.37
2019-04-21T02:50:47.191Z,5.60
2019-04-21T02:53:27.054Z,5.08
2019-04-21T02:55:58.714Z,5.67
2019-04-21T03:01:05.229Z,5.85
2019-04-21T03:08:54.393Z,5.62
2019-04-21T03:11:12.326Z,5.80
2019-04-21T03:14:00.176Z,6.17
2019-04-21T03:16:22.546Z,6.08
2019-04-21T03:18:54.648Z,5.60
2019-04-21T03:21:26.304Z,5.95
2019-04-21T03:23:53.630Z,5.40
2019-04-21T03:26:27.282Z,5.20
2019-04-21T03:28:56.701Z,5.70
2019-04-21T03:32:04.434Z,5.65
2019-04-21T03:34:29.138Z,5.55
2019-04-21T03:36:52.779Z,6.10
2019-04-21T03:38:57.089Z,6.17
2019-04-21T03:41:34.868Z,6.10
2019-04-21T03:43:58.871Z,6.20
2019-04-21T03:46:35.795Z,6.28
2019-04-21T03:54:04.419Z,6.00
2019-04-21T04:01:57.789Z,5.75
2019-04-21T04:04:41.340Z,6.20
2019-04-21T04:07:36.751Z,5.83
2019-04-21T04:10:13.882Z,5.90
2019-04-21T04:15:06.198Z,5.58
2019-04-21T04:17:32.867Z,5.67
2019-04-21T04:20:04.317Z,5.78
2019-04-21T04:22:38.002Z,5.60
2019-04-21T04:25:17.475Z,5.90
2019-04-21T04:27:55.729Z,5.53
2019-04-21T04:30:12.511Z,5.37
2019-04-21T04:32:42.486Z,6.05
2019-04-21T04:35:10.783Z,5.97
2019-04-21T04:37:44.496Z,5.37
2019-04-21T04:45:38.450Z,6.22
2019-04-21T04:48:11.854Z,6.30
2019-04-21T04:53:25.059Z,5.60
2019-04-21T04:58:19.190Z,5.22
2019-04-21T05:00:58.141Z,5.80
2019-04-21T05:09:02.979Z,6.05
2019-04-21T05:14:03.045Z,5.90
2019-04-21T05:23:52.558Z,6.37
2019-04-21T05:26:15.019Z,6.08
2019-04-21T05:28:44.915Z,6.10
2019-04-21T05:31:35.053Z,5.90
2019-04-21T05:34:04.778Z,5.75
2019-04-21T05:36:53.857Z,6.15
2019-04-21T05:39:18.813Z,6.75
2019-04-21T05:41:42.875Z,6.50
2019-04-21T05:44:35.462Z,6.55
2019-04-21T05:47:07.674Z,6.47
2019-04-21T05:49:29.769Z,6.65
2019-04-21T05:52:00.331Z,6.03
2019-04-21T05:57:11.960Z,6.87
2019-04-21T05:59:40.467Z,6.58
2019-04-21T06:02:18.837Z,6.70
2019-04-21T06:05:10.463Z,7.50
2019-04-21T06:07:18.929Z,6.87
2019-04-21T06:09:52.570Z,7.42
2019-04-21T06:12:18.244Z,7.65
2019-04-21T06:15:14.305Z,7.65
2019-04-21T06:20:02.886Z,7.50
2019-04-21T06:22:28.898Z,7.83
2019-04-21T06:25:31.571Z,7.90
2019-04-21T06:27:32.503Z,8.35
2019-04-21T06:30:03.605Z,7.12
2019-04-21T06:32:46.725Z,7.28
2019-04-21T06:35:29.596Z,6.87
2019-04-21T06:38:00.118Z,7.40
2019-04-21T06:40:37.317Z,7.53
2019-04-21T06:43:16.239Z,7.70
2019-04-21T06:45:37.942Z,8.05
2019-04-21T06:48:08.809Z,7.47
2019-04-21T06:50:41.446Z,7.50
2019-04-21T06:53:04.040Z,7.75
2019-04-21T06:55:32.036Z,7.60
2019-04-21T06:58:05.079Z,7.75
2019-04-21T07:00:37.294Z,8.05
2019-04-21T07:03:20.642Z,8.25
2019-04-21T07:05:48.761Z,7.65
2019-04-21T07:10:44.815Z,7.70
2019-04-21T07:13:15.314Z,7.22
2019-04-21T07:15:46.327Z,7.92
2019-04-21T07:18:19.460Z,7.95
2019-04-21T07:20:49.066Z,7.87
2019-04-21T07:23:25.291Z,9.03
2019-04-21T07:25:51.391Z,7.50
2019-04-21T07:28:25.314Z,7.90
2019-04-21T07:30:59.496Z,7.65
2019-04-21T07:33:49.595Z,7.47
2019-04-21T07:35:59.404Z,7.62
2019-04-21T07:38:21.195Z,7.80
2019-04-21T07:40:45.779Z,7.35
2019-04-21T07:43:20.669Z,7.28
2019-04-21T07:45:52.787Z,6.92
2019-04-21T07:48:36.133Z,7.25
2019-04-21T07:51:17.391Z,6.97
2019-04-21T07:53:55.929Z,7.47
2019-04-21T07:56:17.893Z,8.80
2019-04-21T07:59:05.540Z,7.30
2019-04-21T08:01:37.322Z,7.65
2019-04-21T08:04:08.470Z,7.20
2019-04-21T08:09:10.337Z,7.78
2019-04-21T08:11:32.655Z,7.15
2019-04-21T08:14:10.636Z,7.75
2019-04-21T08:16:43.134Z,6.75
2019-04-21T08:19:12.695Z,7.60
2019-04-21T08:21:44.650Z,6.33
2019-04-21T08:24:16.211Z,6.40
2019-04-21T08:26:41.498Z,6.80
2019-04-21T08:29:30.652Z,6.42
2019-04-21T08:34:24.236Z,6.30
2019-04-21T08:36:44.771Z,6.55
2019-04-21T08:39:19.571Z,6.50
2019-04-21T08:41:50.403Z,5.77
2019-04-21T08:44:31.559Z,5.80
2019-04-21T08:46:58.786Z,6.28
2019-04-21T08:49:26.869Z,5.40
2019-04-21T08:52:03.358Z,6.07
2019-04-21T08:54:26.462Z,5.50
2019-04-21T08:57:15.382Z,5.90
2019-04-21T08:59:54.767Z,5.00
2019-04-21T09:02:47.493Z,5.42
2019-04-21T09:05:13.495Z,4.95
2019-04-21T09:07:45.939Z,5.50
2019-04-21T09:10:14.383Z,5.85
2019-04-21T09:12:43.276Z,4.95
2019-04-21T09:15:13.878Z,5.17
2019-04-21T09:17:39.658Z,5.05
2019-04-21T09:20:17.005Z,4.70
2019-04-21T09:22:52.562Z,4.97
2019-04-21T09:25:23.283Z,4.60
2019-04-21T09:27:48.530Z,4.45
2019-04-21T09:30:06.550Z,4.70
2019-04-21T09:32:37.086Z,4.78
2019-04-21T09:35:10.708Z,4.45
2019-04-21T09:37:47.621Z,4.47
2019-04-21T09:40:11.793Z,3.95
2019-04-21T09:42:50.376Z,3.87
2019-04-21T09:45:12.523Z,4.85
2019-04-21T09:47:52.518Z,4.60
2019-04-21T09:50:15.054Z,4.45
2019-04-21T09:52:49.752Z,4.78
2019-04-21T09:55:20.808Z,5.05
2019-04-21T09:57:53.614Z,4.78
2019-04-21T10:00:24.279Z,5.08
2019-04-21T10:02:56.769Z,6.00
2019-04-21T10:05:21.421Z,6.50
2019-04-21T10:07:53.028Z,7.25
2019-04-21T10:10:23.094Z,7.62
2019-04-21T10:12:53.893Z,6.75
2019-04-21T10:15:25.018Z,6.20
2019-04-21T10:17:56.241Z,6.97
2019-04-21T10:20:26.481Z,7.72
2019-04-21T10:22:57.199Z,6.78
2019-04-21T10:25:26.867Z,6.72
2019-04-21T10:27:57.054Z,6.33
2019-04-21T10:30:26.694Z,5.95
2019-04-21T10:32:56.514Z,5.72
2019-04-21T10:35:26.290Z,6.35
2019-04-21T10:38:10.480Z,6.50
2019-04-21T10:40:28.327Z,6.28
2019-04-21T10:42:58.352Z,6.22
2019-04-21T10:45:28.675Z,6.22
2019-04-21T10:47:58.833Z,6.58
2019-04-21T10:50:28.751Z,6.05
2019-04-21T10:53:00.891Z,5.30
2019-04-21T10:55:51.290Z,5.17
2019-04-21T10:58:11.023Z,5.87
2019-04-21T11:00:46.163Z,5.62
2019-04-21T11:03:35.128Z,5.60
2019-04-21T11:06:08.750Z,4.17
2019-04-21T11:08:43.353Z,4.60
2019-04-21T11:11:10.056Z,3.42
2019-04-21T11:13:40.825Z,3.98
2019-04-21T11:16:10.968Z,3.83
2019-04-21T11:18:41.949Z,3.40
2019-04-21T11:21:11.596Z,2.87
2019-04-21T11:23:40.969Z,3.15
2019-04-21T11:26:11.912Z,3.58
2019-04-21T11:28:42.885Z,4.50
2019-04-21T11:31:13.290Z,4.35
2019-04-21T11:33:43.107Z,3.37
2019-04-21T11:36:13.324Z,2.70
2019-04-21T11:39:02.105Z,2.80
2019-04-21T11:43:45.473Z,2.45
2019-04-21T11:46:16.144Z,3.05
2019-04-21T11:48:46.169Z,3.30
2019-04-21T11:51:15.657Z,2.52
2019-04-21T11:53:44.991Z,2.62
2019-04-21T11:56:14.702Z,2.83
2019-04-21T11:58:45.811Z,2.87
2019-04-21T12:01:15.863Z,2.35
2019-04-21T12:03:45.492Z,2.95
2019-04-21T12:06:15.474Z,2.80
2019-04-21T12:08:49.442Z,2.70
2019-04-21T12:11:16.033Z,2.72
2019-04-21T12:13:45.924Z,2.70
2019-04-21T12:16:15.473Z,3.00
2019-04-21T12:18:47.155Z,2.85
2019-04-21T12:21:16.660Z,2.45
2019-04-21T12:23:45.990Z,2.40
2019-04-21T12:26:15.920Z,2.67
2019-04-21T12:28:45.968Z,2.58
2019-04-21T12:31:29.784Z,2.33
2019-04-21T12:34:03.569Z,2.70
2019-04-21T12:39:04.761Z,3.02
2019-04-21T12:44:02.643Z,2.83
2019-04-21T12:46:32.202Z,2.80
2019-04-21T12:49:02.195Z,2.58
2019-04-21T12:51:31.766Z,2.70
2019-04-21T12:54:01.624Z,2.42
2019-04-21T12:56:31.641Z,2.37
2019-04-21T12:59:02.173Z,2.60
2019-04-21T13:01:32.695Z,2.62
2019-04-21T13:04:02.298Z,2.70
2019-04-21T13:06:31.800Z,2.35
2019-04-21T13:09:05.299Z,2.60
2019-04-21T13:14:03.970Z,2.42
2019-04-21T13:16:33.728Z,2.35
2019-04-21T13:19:03.299Z,2.45
2019-04-21T13:21:34.057Z,2.65
2019-04-21T13:24:04.928Z,2.40
2019-04-21T13:26:43.067Z,2.20
2019-04-21T13:29:06.032Z,1.92
2019-04-21T13:31:36.226Z,2.10
2019-04-21T13:34:26.218Z,2.60
2019-04-21T13:36:57.272Z,2.17
2019-04-21T13:39:55.491Z,3.12
2019-04-21T13:42:16.534Z,2.10
2019-04-21T13:44:39.049Z,1.70
2019-04-21T13:47:08.646Z,2.47
2019-04-21T13:49:39.123Z,1.92
2019-04-21T13:52:10.962Z,2.12
2019-04-21T13:54:41.415Z,1.95
2019-04-21T13:57:12.406Z,1.65
2019-04-21T13:59:42.280Z,1.90
2019-04-21T14:02:12.960Z,1.87
2019-04-21T14:04:43.270Z,2.05
2019-04-21T14:07:14.227Z,2.30
2019-04-21T14:09:54.539Z,2.35
2019-04-21T14:12:14.872Z,2.20
2019-04-21T14:14:44.236Z,2.22
2019-04-21T14:17:14.921Z,2.20
2019-04-21T14:19:45.513Z,2.10
2019-04-21T14:22:18.018Z,2.00
2019-04-21T14:27:18.547Z,1.90
2019-04-21T14:29:49.264Z,2.10
2019-04-21T14:32:20.144Z,2.02
2019-04-21T14:34:53.451Z,1.90
2019-04-21T14:37:22.610Z,1.77
2019-04-21T14:39:59.616Z,2.05
2019-04-21T14:42:24.279Z,2.08
2019-04-21T14:44:54.702Z,2.30
2019-04-21T14:47:38.027Z,1.80
2019-04-21T14:50:28.180Z,2.00
2019-04-21T14:53:17.936Z,1.60
2019-04-21T14:55:49.038Z,1.82
2019-04-21T14:58:19.107Z,2.00
2019-04-21T15:01:01.985Z,2.10
2019-04-21T15:03:34.126Z,1.92
2019-04-21T15:06:05.410Z,1.92
2019-04-21T15:08:35.306Z,2.20
2019-04-21T15:11:05.318Z,1.72
2019-04-21T15:13:35.514Z,2.17
2019-04-21T15:16:06.893Z,2.33
2019-04-21T15:18:36.862Z,2.35
2019-04-21T15:21:07.637Z,2.25
2019-04-21T15:23:38.251Z,2.15
2019-04-21T15:26:08.309Z,2.37
2019-04-21T15:28:40.626Z,2.22
2019-04-21T15:31:13.900Z,2.20
2019-04-21T15:33:41.284Z,2.35
2019-04-21T15:36:11.252Z,2.08
2019-04-21T15:38:40.797Z,1.82
2019-04-21T15:41:10.868Z,2.20
2019-04-21T15:43:40.705Z,2.12
2019-04-21T15:46:10.951Z,2.00
2019-04-21T15:48:41.190Z,2.00
2019-04-21T15:51:11.137Z,1.95
2019-04-21T15:53:43.715Z,2.25
2019-04-21T15:58:50.456Z,2.15
2019-04-21T16:01:30.605Z,2.40
2019-04-21T16:04:02.497Z,2.20
2019-04-21T16:06:32.057Z,2.22
2019-04-21T16:09:03.251Z,1.80
2019-04-21T16:11:33.642Z,2.00
2019-04-21T16:14:03.757Z,2.30
2019-04-21T16:16:34.586Z,2.20
2019-04-21T16:19:05.976Z,2.37
2019-04-21T16:21:40.104Z,2.33
2019-04-21T16:24:06.838Z,2.35
2019-04-21T16:26:36.325Z,2.50
2019-04-21T16:29:07.008Z,2.52
2019-04-21T16:31:36.569Z,2.30
2019-04-21T16:34:07.146Z,2.52
2019-04-21T16:36:37.901Z,2.85
2019-04-21T16:39:09.510Z,2.80
2019-04-21T16:41:40.394Z,2.75
2019-04-21T16:44:11.180Z,3.10
2019-04-21T16:46:41.325Z,2.75
2019-04-21T16:49:11.841Z,3.20
2019-04-21T16:51:42.283Z,2.40
2019-04-21T16:54:16.266Z,2.55
2019-04-21T16:56:57.536Z,2.47
2019-04-21T16:59:28.755Z,2.50
2019-04-21T17:01:58.764Z,2.20
2019-04-21T17:04:28.717Z,2.60
2019-04-21T17:06:58.920Z,2.47
2019-04-21T17:09:28.584Z,2.30
2019-04-21T17:12:01.844Z,2.30
2019-04-21T17:14:45.302Z,2.35
2019-04-21T17:17:25.419Z,2.50
2019-04-21T17:19:37.032Z,2.47
2019-04-21T17:22:03.817Z,2.60
2019-04-21T17:24:34.726Z,2.45
2019-04-21T17:27:05.102Z,2.50
2019-04-21T17:29:34.689Z,2.62
2019-04-21T17:32:06.494Z,2.42
2019-04-21T17:34:36.109Z,2.55
2019-04-21T17:37:06.313Z,2.30
2019-04-21T17:39:36.633Z,2.40
2019-04-21T17:42:22.643Z,2.33
2019-04-21T17:44:37.400Z,2.20
2019-04-21T17:47:21.833Z,2.20
2019-04-21T17:49:39.290Z,2.30
2019-04-21T17:52:19.504Z,2.15
2019-04-21T17:54:51.153Z,2.70
2019-04-21T17:57:38.872Z,2.20
2019-04-21T18:00:13.931Z,2.55
2019-04-21T18:02:45.988Z,2.67
2019-04-21T18:05:15.204Z,2.65
2019-04-21T18:07:41.930Z,2.25
2019-04-21T18:10:17.530Z,2.80
2019-04-21T18:12:42.483Z,2.72
2019-04-21T18:15:16.690Z,1.92
2019-04-21T18:17:28.888Z,2.40
2019-04-21T18:19:59.679Z,2.30
2019-04-21T18:22:41.717Z,2.40
2019-04-21T18:25:25.235Z,2.60
2019-04-21T18:27:42.757Z,2.12
2019-04-21T18:30:42.443Z,2.35
2019-04-21T18:33:23.461Z,3.15
2019-04-21T18:36:00.162Z,3.80
2019-04-21T18:39:06.965Z,4.08
2019-04-21T18:41:21.789Z,3.42
2019-04-21T18:47:05.190Z,2.65
2019-04-21T18:49:15.333Z,3.02
2019-04-21T18:54:53.881Z,2.55
2019-04-21T18:57:17.498Z,2.45
2019-04-21T18:59:41.407Z,2.67
2019-04-21T19:02:13.471Z,2.85
2019-04-21T19:04:40.535Z,2.40
2019-04-21T19:07:20.134Z,2.70
2019-04-21T19:12:49.104Z,2.60
2019-04-21T19:14:58.085Z,2.72
2019-04-21T19:17:58.032Z,2.77
2019-04-21T19:20:15.899Z,2.83
2019-04-21T19:22:40.091Z,2.65
2019-04-21T19:25:05.429Z,2.60
2019-04-21T19:27:36.540Z,2.98
2019-04-21T19:30:12.154Z,2.58
2019-04-21T19:32:37.474Z,3.10
2019-04-21T19:34:57.210Z,3.12
2019-04-21T19:37:26.995Z,3.37
2019-04-21T19:40:07.885Z,3.20
2019-04-21T19:42:37.023Z,3.20
2019-04-21T19:45:14.947Z,3.72
2019-04-21T19:47:49.511Z,3.60
2019-04-21T19:50:16.858Z,3.27
2019-04-21T19:52:39.914Z,3.52
2019-04-21T19:55:02.569Z,3.27
2019-04-21T19:57:32.201Z,3.10
2019-04-21T20:00:04.158Z,4.55
2019-04-21T20:02:34.386Z,3.92
2019-04-21T20:05:11.596Z,4.20
2019-04-21T20:10:35.511Z,4.12
2019-04-21T20:13:03.800Z,3.87
2019-04-21T20:15:36.118Z,4.30
2019-04-21T20:18:00.164Z,4.83
2019-04-21T20:20:15.296Z,3.27
2019-04-21T20:22:48.511Z,3.42
2019-04-21T20:25:19.452Z,3.55
2019-04-21T20:27:56.788Z,3.42
2019-04-21T20:30:40.525Z,3.60
2019-04-21T20:33:19.773Z,3.08
2019-04-21T20:35:46.897Z,3.10
2019-04-21T20:38:07.268Z,3.60
2019-04-21T20:40:36.241Z,2.98
2019-04-21T20:43:17.702Z,2.58
2019-04-21T20:48:19.905Z,2.83
2019-04-21T20:51:01.836Z,2.33
2019-04-21T20:53:33.041Z,2.52
2019-04-21T20:55:57.681Z,2.50
2019-04-21T20:58:34.245Z,2.90
2019-04-21T21:01:20.801Z,2.45
2019-04-21T21:03:39.097Z,2.72
2019-04-21T21:06:03.780Z,2.80
2019-04-21T21:08:40.146Z,2.50
2019-04-21T21:11:09.554Z,2.30
2019-04-21T21:13:45.761Z,2.72
2019-04-21T21:21:15.183Z,2.72
2019-04-21T21:23:51.292Z,2.45
2019-04-21T21:26:23.324Z,2.75
2019-04-21T21:28:46.087Z,2.70
2019-04-21T21:31:17.719Z,2.30
2019-04-21T21:34:03.464Z,2.75
2019-04-21T21:36:24.060Z,2.85
2019-04-21T21:38:55.912Z,2.85
2019-04-21T21:41:17.918Z,2.37
2019-04-21T21:43:39.530Z,2.80
2019-04-21T21:46:26.741Z,2.65
2019-04-21T21:48:54.062Z,2.47
2019-04-21T21:51:18.678Z,2.47
2019-04-21T21:53:43.928Z,2.72
2019-04-21T21:56:14.551Z,2.75
2019-04-21T21:58:46.166Z,2.72
2019-04-21T22:01:20.783Z,2.45
2019-04-21T22:03:53.949Z,3.00
2019-04-21T22:06:23.045Z,2.60
2019-04-21T22:08:50.454Z,2.83
2019-04-21T22:11:20.179Z,2.70
2019-04-21T22:13:55.705Z,2.47
2019-04-21T22:16:21.842Z,2.47
2019-04-21T22:19:27.320Z,2.63
2019-04-21T22:21:53.465Z,2.35
2019-04-21T22:24:23.769Z,2.85
2019-04-21T22:26:40.994Z,2.55
2019-04-21T22:29:11.739Z,2.70
2019-04-21T22:31:42.988Z,2.83
2019-04-21T22:34:14.222Z,2.77
2019-04-21T22:36:53.815Z,3.05
2019-04-21T22:39:34.936Z,2.87
2019-04-21T22:41:48.857Z,2.80
2019-04-21T22:44:18.681Z,2.90
2019-04-21T22:46:58.639Z,3.50
2019-04-21T22:49:22.018Z,3.50
2019-04-21T22:51:52.157Z,3.05
2019-04-21T22:54:29.621Z,3.22
2019-04-21T22:57:02.595Z,3.87
2019-04-21T22:59:26.401Z,3.40
2019-04-21T23:01:55.826Z,3.75
2019-04-21T23:04:35.576Z,3.77
2019-04-21T23:07:04.137Z,3.10
2019-04-21T23:09:29.004Z,2.90
2019-04-21T23:12:00.995Z,2.95
2019-04-21T23:14:33.896Z,3.15
2019-04-21T23:17:26.711Z,3.17
2019-04-21T23:19:42.205Z,3.12
2019-04-21T23:22:21.742Z,3.15
2019-04-21T23:24:54.439Z,2.80
2019-04-21T23:27:15.394Z,3.27
2019-04-21T23:29:58.881Z,3.52
2019-04-21T23:32:22.324Z,3.00
2019-04-21T23:34:40.289Z,2.90
2019-04-21T23:37:14.975Z,2.98
2019-04-21T23:39:41.575Z,3.22
2019-04-21T23:42:11.342Z,3.27
2019-04-21T23:44:47.035Z,3.50
2019-04-21T23:47:19.990Z,3.00
2019-04-21T23:49:51.069Z,3.02
2019-04-21T23:52:15.985Z,3.12
2019-04-21T23:54:45.329Z,2.92
2019-04-21T23:57:23.198Z,2.72
2019-04-21T23:59:51.330Z,3.60
